Time;durP1;ratioP1;P1;durP2;ratioP2;P2;SDS_P1;SDS_P2;PMS_P1;PMS_P2;Temp;Humidity;BMP_temperature;BMP_pressure;BME280_temperature;BME280_humidity;BME280_pressure;Samples;Min_cycle;Max_cycle;Signal;HPM_P1;HPM_P2
2022/10/01 00:00:19;;;;;;;43.85;7.72;;;;;;;17.38;100.00;99079.69;5053968;28;20475;-95
2022/10/01 00:02:45;;;;;;;40.42;7.22;;;;;;;17.57;100.00;99082.81;5054013;28;20120;-95
2022/10/01 00:05:10;;;;;;;40.10;6.80;;;;;;;17.54;100.00;99070.72;5054154;28;20120;-95
2022/10/01 00:07:40;;;;;;;31.20;5.72;;;;;;;17.53;100.00;99076.22;5053943;28;20515;-94
2022/10/01 00:10:07;;;;;;;36.75;6.15;;;;;;;17.33;100.00;99076.72;5053500;28;20108;-94
2022/10/01 00:12:33;;;;;;;41.65;6.93;;;;;;;17.60;100.00;99088.56;5053638;28;20088;-96
2022/10/01 00:14:59;;;;;;;48.33;7.40;;;;;;;17.70;100.00;99093.63;5054609;28;20067;-95
2022/10/01 00:17:24;;;;;;;41.60;6.78;;;;;;;17.70;100.00;99098.13;5053661;28;20056;-94
2022/10/01 00:19:50;;;;;;;40.63;5.85;;;;;;;17.48;100.00;99099.84;5053803;28;20013;-95
2022/10/01 00:22:17;;;;;;;35.40;5.10;;;;;;;17.39;100.00;99107.03;5053768;28;20044;-95
2022/10/01 00:24:46;;;;;;;47.08;5.95;;;;;;;16.73;100.00;99106.69;5055836;28;20125;-96
2022/10/01 00:27:12;;;;;;;39.55;7.20;;;;;;;16.79;100.00;99106.00;5054714;28;20096;-95
2022/10/01 00:29:38;;;;;;;27.15;5.22;;;;;;;16.84;100.00;99119.56;5053366;28;20040;-96
2022/10/01 00:32:04;;;;;;;30.77;5.43;;;;;;;17.05;100.00;99121.56;5053526;28;20017;-96
2022/10/01 00:34:30;;;;;;;20.88;3.50;;;;;;;17.22;100.00;99124.94;5054099;28;20036;-95
2022/10/01 00:36:55;;;;;;;32.95;5.05;;;;;;;17.03;100.00;99145.59;5054841;28;20396;-96
2022/10/01 00:39:22;;;;;;;34.40;4.90;;;;;;;16.73;100.00;99131.38;5055034;28;20032;-95
2022/10/01 00:41:48;;;;;;;24.63;4.15;;;;;;;16.99;100.00;99128.41;5055416;28;20029;-95
2022/10/01 00:44:33;;;;;;;21.92;3.35;;;;;;;16.62;100.00;99143.19;5054391;28;20112;-96
2022/10/01 00:47:30;;;;;;;32.58;5.28;;;;;;;16.77;100.00;99139.81;5054486;28;20032;-96
2022/10/01 00:50:05;;;;;;;31.45;3.72;;;;;;;16.94;100.00;99130.78;5045835;28;20033;-96
2022/10/01 00:52:33;;;;;;;36.05;3.78;;;;;;;16.81;100.00;99146.41;5054138;28;20017;-95
2022/10/01 00:55:14;;;;;;;29.33;4.05;;;;;;;16.64;100.00;99149.13;5054275;28;20025;-95
2022/10/01 00:57:40;;;;;;;32.60;4.65;;;;;;;16.78;100.00;99147.56;5054054;28;20029;-96
2022/10/01 01:00:08;;;;;;;22.63;2.60;;;;;;;16.77;100.00;99150.41;5053550;28;20029;-95
2022/10/01 01:02:34;;;;;;;14.68;3.20;;;;;;;17.07;100.00;99146.09;5053478;28;20478;-94
2022/10/01 01:05:00;;;;;;;23.42;3.30;;;;;;;16.94;100.00;99167.91;5054343;28;20139;-96
2022/10/01 01:07:28;;;;;;;35.40;4.72;;;;;;;16.57;100.00;99156.16;5053524;28;20067;-96
2022/10/01 01:09:54;;;;;;;36.60;4.97;;;;;;;16.46;100.00;99170.59;5053694;28;20021;-95
2022/10/01 01:12:37;;;;;;;43.33;4.68;;;;;;;16.79;100.00;99161.66;5053333;28;20112;-95
2022/10/01 01:15:13;;;;;;;29.20;5.20;;;;;;;16.75;100.00;99168.31;5052732;28;20133;-95
2022/10/01 01:17:42;;;;;;;27.70;3.78;;;;;;;16.73;100.00;99159.72;5052858;28;20028;-95
2022/10/01 01:20:20;;;;;;;24.50;4.57;;;;;;;16.70;100.00;99158.22;5052509;28;20032;-94
2022/10/01 01:22:53;;;;;;;25.85;4.10;;;;;;;16.68;100.00;99151.44;5053300;28;20017;-96
2022/10/01 01:25:25;;;;;;;25.80;4.72;;;;;;;16.64;100.00;99150.97;5052361;28;20035;-96
2022/10/01 01:28:30;;;;;;;28.95;4.55;;;;;;;16.72;100.00;99152.75;5052205;28;20107;-96
2022/10/01 01:31:01;;;;;;;33.13;4.53;;;;;;;16.57;100.00;99136.78;5052177;28;20063;-95
2022/10/01 01:33:31;;;;;;;28.13;4.90;;;;;;;16.29;100.00;99142.53;5052006;28;20422;-94
2022/10/01 01:36:03;;;;;;;25.90;4.78;;;;;;;16.52;100.00;99160.31;5052626;28;20036;-95
2022/10/01 01:38:36;;;;;;;35.55;4.60;;;;;;;16.62;100.00;99164.38;5053100;28;20130;-95
2022/10/01 01:41:04;;;;;;;31.98;4.55;;;;;;;16.54;100.00;99166.25;5053093;28;20070;-94
2022/10/01 01:43:34;;;;;;;29.90;5.03;;;;;;;16.28;100.00;99162.06;5052178;28;20525;-94
2022/10/01 01:46:03;;;;;;;21.52;4.22;;;;;;;16.73;100.00;99162.34;5052471;28;20493;-95
2022/10/01 01:48:32;;;;;;;35.45;5.10;;;;;;;16.75;100.00;99163.00;5052080;28;20350;-95
2022/10/01 01:51:30;;;;;;;44.75;5.47;;;;;;;16.48;100.00;99162.47;5052250;28;20025;-96
2022/10/01 01:53:56;;;;;;;44.22;5.57;;;;;;;16.34;100.00;99152.59;5052387;28;20056;-95
2022/10/01 01:56:22;;;;;;;27.10;4.18;;;;;;;16.76;100.00;99164.66;5052209;28;20379;-95
2022/10/01 01:58:49;;;;;;;28.13;4.22;;;;;;;16.38;100.00;99165.31;5052008;28;20025;-95
2022/10/01 02:01:39;;;;;;;40.25;5.28;;;;;;;16.87;100.00;99180.19;5051681;28;20344;-96
2022/10/01 02:04:14;;;;;;;33.45;3.85;;;;;;;16.94;100.00;99167.91;5061332;28;20036;-96
2022/10/01 02:06:57;;;;;;;32.72;5.55;;;;;;;16.81;100.00;99168.47;5052042;28;20025;-95
2022/10/01 02:09:33;;;;;;;25.83;4.57;;;;;;;16.98;100.00;99178.94;5052303;28;20029;-95
2022/10/01 02:12:26;;;;;;;24.48;4.38;;;;;;;16.87;100.00;99174.88;5052251;28;20391;-96
2022/10/01 02:15:01;;;;;;;29.85;3.88;;;;;;;16.71;100.00;99174.97;5051576;28;20044;-94
2022/10/01 02:17:55;;;;;;;29.45;4.25;;;;;;;16.68;100.00;99188.56;5051937;28;20428;-96
2022/10/01 02:20:44;;;;;;;28.90;4.90;;;;;;;16.90;100.00;99185.13;5051412;28;20394;-95
2022/10/01 02:23:24;;;;;;;32.53;5.32;;;;;;;16.88;100.00;99188.97;5051626;28;20025;-95
2022/10/01 02:25:55;;;;;;;35.75;5.30;;;;;;;17.05;100.00;99196.63;5051464;28;20025;-94
2022/10/01 02:28:22;;;;;;;27.00;5.55;;;;;;;17.01;100.00;99199.84;5057855;28;20025;-96
2022/10/01 02:30:52;;;;;;;34.30;5.05;;;;;;;16.95;100.00;99196.06;5068321;28;20025;-95
2022/10/01 02:33:23;;;;;;;27.90;4.07;;;;;;;17.07;100.00;99196.47;5051289;28;20029;-95
2022/10/01 02:35:51;;;;;;;34.90;4.75;;;;;;;16.61;100.00;99205.16;5051366;28;20032;-95
2022/10/01 02:38:20;;;;;;;35.30;4.50;;;;;;;16.83;100.00;99223.97;5051322;28;20622;-96
2022/10/01 02:40:48;;;;;;;37.38;4.60;;;;;;;16.33;100.00;99206.56;5051321;28;20117;-94
2022/10/01 02:43:21;;;;;;;26.98;5.20;;;;;;;16.61;100.00;99215.75;5051145;28;20029;-94
2022/10/01 02:45:54;;;;;;;25.20;3.60;;;;;;;16.19;100.00;99208.94;5053907;28;20089;-94
2022/10/01 02:48:20;;;;;;;22.42;3.70;;;;;;;16.52;100.00;99221.25;5055121;28;20033;-94
2022/10/01 02:50:52;;;;;;;27.63;3.95;;;;;;;16.76;100.00;99217.66;5055037;28;20025;-96
2022/10/01 02:53:41;;;;;;;28.98;4.78;;;;;;;16.62;100.00;99221.88;5054958;28;20032;-96
2022/10/01 02:56:08;;;;;;;40.63;4.25;;;;;;;16.75;100.00;99222.13;5054954;28;20116;-95
2022/10/01 02:58:35;;;;;;;34.28;5.15;;;;;;;16.72;100.00;99205.75;5055093;28;20164;-96
2022/10/01 03:01:00;;;;;;;35.05;4.97;;;;;;;16.65;100.00;99209.09;5054850;28;20029;-94
2022/10/01 03:03:26;;;;;;;31.98;4.72;;;;;;;16.76;100.00;99215.00;5055023;28;20119;-95
2022/10/01 03:05:53;;;;;;;26.30;4.32;;;;;;;17.08;100.00;99231.75;5054762;28;20064;-94
2022/10/01 03:08:18;;;;;;;38.65;6.70;;;;;;;16.81;100.00;99233.88;5054523;28;20047;-95
2022/10/01 03:10:44;;;;;;;29.42;3.58;;;;;;;16.55;100.00;99231.53;5054334;28;20029;-96
2022/10/01 03:13:10;;;;;;;32.72;4.68;;;;;;;16.74;100.00;99233.72;5054398;28;20053;-95
2022/10/01 03:15:35;;;;;;;28.70;3.72;;;;;;;16.85;100.00;99237.88;5054349;28;20037;-95
2022/10/01 03:18:01;;;;;;;35.92;5.07;;;;;;;16.60;100.00;99240.56;5054309;28;20029;-96
2022/10/01 03:20:26;;;;;;;28.25;4.60;;;;;;;16.53;100.00;99238.78;5054588;28;20399;-96
2022/10/01 03:22:52;;;;;;;34.72;6.10;;;;;;;16.77;100.00;99240.53;5054355;28;20036;-96
2022/10/01 03:25:17;;;;;;;29.52;4.18;;;;;;;16.87;100.00;99241.16;5054293;28;20052;-94
2022/10/01 03:27:45;;;;;;;25.13;3.75;;;;;;;16.84;100.00;99245.00;5054100;28;20032;-95
2022/10/01 03:30:11;;;;;;;39.70;5.13;;;;;;;16.80;100.00;99245.47;5054431;28;20027;-94
2022/10/01 03:32:37;;;;;;;31.98;5.28;;;;;;;16.24;100.00;99243.69;5054154;28;20108;-95
2022/10/01 03:35:03;;;;;;;32.08;4.72;;;;;;;16.44;100.00;99241.47;5053755;28;20148;-95
2022/10/01 03:37:28;;;;;;;25.10;3.90;;;;;;;16.38;100.00;99251.94;5054114;28;20593;-95
2022/10/01 03:39:53;;;;;;;28.13;4.30;;;;;;;16.51;100.00;99249.56;5054009;28;20119;-96
2022/10/01 03:42:19;;;;;;;39.63;5.72;;;;;;;16.08;100.00;99254.31;5054175;28;20021;-95
2022/10/01 03:44:44;;;;;;;34.40;5.05;;;;;;;16.15;100.00;99265.91;5054067;28;20386;-94
2022/10/01 03:47:10;;;;;;;24.38;4.07;;;;;;;16.40;100.00;99249.94;5053687;28;20040;-95
2022/10/01 03:49:36;;;;;;;26.88;4.20;;;;;;;16.61;100.00;99249.38;5053696;28;20032;-94
2022/10/01 03:52:03;;;;;;;20.73;4.20;;;;;;;16.57;100.00;99246.25;5053810;28;20107;-95
2022/10/01 03:54:30;;;;;;;23.67;4.15;;;;;;;16.53;100.00;99247.59;5053818;28;20127;-94
2022/10/01 03:56:56;;;;;;;26.88;4.20;;;;;;;16.75;100.00;99266.38;5053146;28;20387;-95
2022/10/01 03:59:22;;;;;;;22.77;3.75;;;;;;;16.56;100.00;99252.53;5053358;28;20029;-93
2022/10/01 04:01:47;;;;;;;34.45;4.43;;;;;;;16.54;100.00;99254.50;5053452;28;20040;-94
2022/10/01 04:04:13;;;;;;;28.55;5.22;;;;;;;16.57;100.00;99264.78;5053579;28;20033;-95
2022/10/01 04:06:39;;;;;;;27.92;4.97;;;;;;;16.61;100.00;99284.66;5053657;28;20078;-94
2022/10/01 04:09:05;;;;;;;39.47;7.13;;;;;;;16.55;100.00;99280.03;5053433;28;20025;-95
2022/10/01 04:11:30;;;;;;;33.58;5.38;;;;;;;16.79;100.00;99281.75;5053452;28;20028;-95
2022/10/01 04:13:58;;;;;;;37.53;5.80;;;;;;;16.73;100.00;99277.16;5053192;28;20025;-95
2022/10/01 04:16:24;;;;;;;35.70;4.80;;;;;;;16.93;100.00;99293.50;5053241;28;20029;-94
2022/10/01 04:18:50;;;;;;;27.70;4.55;;;;;;;16.99;100.00;99305.25;5053086;28;20032;-95
2022/10/01 04:21:16;;;;;;;30.63;4.10;;;;;;;17.04;100.00;99306.38;5053022;28;20021;-95
2022/10/01 04:23:41;;;;;;;31.85;4.78;;;;;;;17.07;100.00;99312.34;5053109;28;20372;-94
2022/10/01 04:26:08;;;;;;;22.85;4.05;;;;;;;16.99;100.00;99314.03;5053001;28;20020;-95
2022/10/01 04:28:34;;;;;;;30.58;5.18;;;;;;;17.07;100.00;99322.94;5053050;28;20062;-95
2022/10/01 04:33:44;;;;;;;30.80;3.90;;;;;;;17.23;100.00;99328.16;5054221;28;20032;-96
2022/10/01 04:36:10;;;;;;;30.00;4.90;;;;;;;17.02;100.00;99321.66;5053086;28;20021;-95
2022/10/01 04:38:35;;;;;;;33.13;5.60;;;;;;;16.94;100.00;99332.28;5052711;28;20087;-96
2022/10/01 04:41:01;;;;;;;25.75;4.78;;;;;;;16.96;100.00;99335.59;5052731;28;20079;-96
2022/10/01 04:43:26;;;;;;;27.77;5.07;;;;;;;16.88;100.00;99332.13;5052779;28;20033;-96
2022/10/01 04:45:52;;;;;;;21.48;3.75;;;;;;;17.09;100.00;99350.13;5052770;28;20056;-96
2022/10/01 04:48:18;;;;;;;24.08;4.95;;;;;;;17.11;100.00;99341.00;5052861;28;20417;-95
2022/10/01 04:50:43;;;;;;;22.00;3.90;;;;;;;17.13;100.00;99352.25;5052567;28;20060;-96
2022/10/01 04:53:09;;;;;;;24.50;3.97;;;;;;;16.44;100.00;99342.13;5052341;28;20566;-96
2022/10/01 04:55:34;;;;;;;16.88;4.05;;;;;;;16.69;100.00;99354.53;5052670;28;20424;-94
2022/10/01 04:58:00;;;;;;;23.80;4.32;;;;;;;16.65;100.00;99354.03;5052437;28;20028;-96
2022/10/01 05:00:25;;;;;;;18.70;4.15;;;;;;;16.74;100.00;99355.66;5052376;28;20029;-95
2022/10/01 05:02:52;;;;;;;30.98;4.75;;;;;;;16.33;100.00;99360.19;5053743;28;20036;-95
2022/10/01 05:05:20;;;;;;;24.90;4.00;;;;;;;16.36;100.00;99360.69;5052264;28;20021;-96
2022/10/01 05:07:46;;;;;;;22.08;3.25;;;;;;;16.41;100.00;99374.28;5051415;28;20021;-94
2022/10/01 05:10:15;;;;;;;21.33;3.28;;;;;;;16.31;100.00;99367.50;5052301;28;20120;-95
2022/10/01 05:12:41;;;;;;;21.65;3.60;;;;;;;16.66;100.00;99383.00;5052232;28;20025;-95
2022/10/01 05:15:07;;;;;;;16.40;2.85;;;;;;;16.62;100.00;99379.03;5052026;28;20028;-95
2022/10/01 05:17:33;;;;;;;31.48;3.95;;;;;;;16.19;100.00;99381.09;5052019;28;20091;-94
2022/10/01 05:20:00;;;;;;;19.98;4.03;;;;;;;16.42;100.00;99388.34;5052266;28;20064;-95
2022/10/01 05:22:25;;;;;;;26.80;5.22;;;;;;;15.96;100.00;99388.03;5052332;28;20190;-94
2022/10/01 05:24:51;;;;;;;26.42;3.28;;;;;;;16.20;100.00;99393.31;5052019;28;20490;-94
2022/10/01 05:27:17;;;;;;;22.92;3.97;;;;;;;16.43;100.00;99393.50;5052037;28;20368;-94
2022/10/01 05:29:43;;;;;;;21.27;3.88;;;;;;;16.48;100.00;99411.53;5051883;28;20029;-96
2022/10/01 05:32:09;;;;;;;32.92;4.28;;;;;;;16.01;100.00;99415.63;5051905;28;20418;-95
2022/10/01 05:34:35;;;;;;;20.60;3.33;;;;;;;16.42;100.00;99418.31;5052088;28;20037;-95
2022/10/01 05:37:01;;;;;;;22.20;4.18;;;;;;;16.35;100.00;99409.41;5052083;28;20043;-96
2022/10/01 05:39:27;;;;;;;23.17;3.20;;;;;;;16.42;100.00;99412.19;5051722;28;20052;-94
2022/10/01 05:41:54;;;;;;;25.23;3.38;;;;;;;16.21;100.00;99410.88;5051978;28;20025;-94
2022/10/01 05:44:21;;;;;;;22.73;3.15;;;;;;;16.20;100.00;99419.81;5052101;28;20055;-96
2022/10/01 05:46:46;;;;;;;34.55;5.15;;;;;;;16.33;100.00;99426.44;5051933;28;20536;-95
2022/10/01 05:49:11;;;;;;;25.58;3.10;;;;;;;16.09;100.00;99428.06;5051790;28;20025;-94
2022/10/01 05:51:37;;;;;;;34.63;3.55;;;;;;;16.15;100.00;99432.72;5051840;28;20024;-95
2022/10/01 05:54:03;;;;;;;22.40;3.70;;;;;;;16.27;100.00;99443.81;5051555;28;20479;-95
2022/10/01 05:56:29;;;;;;;17.73;2.38;;;;;;;16.42;100.00;99444.81;5051717;28;20045;-95
2022/10/01 05:58:55;;;;;;;20.25;3.28;;;;;;;16.43;100.00;99450.97;5051671;28;20021;-96
2022/10/01 06:01:20;;;;;;;19.85;3.20;;;;;;;16.38;100.00;99451.44;5051324;28;20033;-95
2022/10/01 06:03:50;;;;;;;23.58;3.67;;;;;;;16.40;100.00;99460.03;5051849;28;20029;-94
2022/10/01 06:06:22;;;;;;;20.15;3.50;;;;;;;15.99;100.00;99465.28;5051739;28;20024;-95
2022/10/01 06:08:48;;;;;;;20.10;2.88;;;;;;;16.23;100.00;99464.50;5051756;28;20029;-94
2022/10/01 06:11:15;;;;;;;22.45;3.53;;;;;;;16.06;100.00;99460.19;5051564;28;20445;-94
2022/10/01 06:13:44;;;;;;;23.63;3.40;;;;;;;16.18;100.00;99474.75;5051513;28;20031;-96
2022/10/01 06:16:10;;;;;;;19.58;3.55;;;;;;;16.25;100.00;99475.78;5051706;28;20112;-94
2022/10/01 06:18:36;;;;;;;21.77;4.50;;;;;;;16.10;100.00;99479.22;5052045;28;20029;-95
2022/10/01 06:21:01;;;;;;;17.25;3.42;;;;;;;16.25;100.00;99486.38;5055215;28;20037;-94
2022/10/01 06:23:27;;;;;;;26.45;3.47;;;;;;;15.94;100.00;99487.97;5055393;28;20032;-96
2022/10/01 06:25:53;;;;;;;25.00;3.53;;;;;;;16.07;100.00;99488.31;5055259;28;20021;-96
2022/10/01 06:28:18;;;;;;;18.52;3.55;;;;;;;16.03;100.00;99497.56;5055408;28;20021;-94
2022/10/01 06:30:44;;;;;;;23.92;4.35;;;;;;;16.34;100.00;99512.88;5055075;28;20021;-96
2022/10/01 06:33:14;;;;;;;26.55;4.35;;;;;;;16.07;100.00;99506.84;5055843;28;20021;-96
2022/10/01 06:35:47;;;;;;;47.50;4.68;;;;;;;16.29;100.00;99512.50;5055147;28;20486;-95
2022/10/01 06:38:14;;;;;;;19.50;2.67;;;;;;;16.22;100.00;99507.88;5055185;28;20029;-96
2022/10/01 06:40:40;;;;;;;25.33;3.60;;;;;;;16.62;100.00;99502.78;5055447;28;20497;-95
2022/10/01 06:43:06;;;;;;;31.15;4.53;;;;;;;16.51;100.00;99508.41;5055043;28;20112;-95
2022/10/01 06:45:36;;;;;;;24.02;3.47;;;;;;;16.56;100.00;99509.56;5055059;28;20025;-95
2022/10/01 06:48:03;;;;;;;24.55;3.45;;;;;;;16.69;100.00;99525.00;5054888;28;20115;-93
2022/10/01 06:50:30;;;;;;;27.48;3.75;;;;;;;16.78;100.00;99523.16;5054856;28;20029;-95
2022/10/01 06:52:56;;;;;;;16.80;3.05;;;;;;;16.92;100.00;99535.75;5055047;28;20025;-95
2022/10/01 06:55:25;;;;;;;21.35;3.33;;;;;;;16.73;100.00;99541.41;5055140;28;20509;-94
2022/10/01 06:58:14;;;;;;;23.20;3.50;;;;;;;17.13;100.00;99531.78;5055071;28;20098;-94
2022/10/01 07:00:42;;;;;;;22.08;3.33;;;;;;;17.35;100.00;99544.34;5054822;28;20025;-94
2022/10/01 07:03:12;;;;;;;28.23;4.03;;;;;;;17.21;100.00;99547.69;5054821;28;20036;-96
2022/10/01 07:05:39;;;;;;;20.47;3.47;;;;;;;17.79;100.00;99546.56;5054777;28;20040;-95
2022/10/01 07:08:05;;;;;;;22.55;4.03;;;;;;;17.78;100.00;99544.06;5054895;28;20337;-96
2022/10/01 07:10:31;;;;;;;15.35;3.75;;;;;;;18.07;100.00;99551.44;5054782;28;20021;-94
2022/10/01 07:13:06;;;;;;;15.50;3.25;;;;;;;18.28;100.00;99563.28;5054528;28;20025;-95
2022/10/01 07:15:32;;;;;;;25.48;5.03;;;;;;;18.36;100.00;99566.69;5054535;28;20096;-95
2022/10/01 07:17:58;;;;;;;19.25;3.53;;;;;;;18.21;100.00;99574.59;5054622;28;20032;-95
2022/10/01 07:20:23;;;;;;;26.10;4.00;;;;;;;18.40;100.00;99564.53;5054549;28;20057;-95
2022/10/01 07:22:58;;;;;;;20.48;3.85;;;;;;;18.67;100.00;99568.50;5054889;28;20074;-96
2022/10/01 07:25:24;;;;;;;23.08;5.00;;;;;;;18.96;100.00;99572.31;5054296;28;20052;-95
2022/10/01 07:27:55;;;;;;;27.40;3.65;;;;;;;19.05;100.00;99575.72;5054405;28;20021;-95
2022/10/01 07:30:22;;;;;;;23.07;3.63;;;;;;;19.20;100.00;99585.41;5053506;28;20499;-95
2022/10/01 07:32:48;;;;;;;20.50;3.55;;;;;;;18.66;99.83;99581.97;5054307;28;20025;-95
2022/10/01 07:35:13;;;;;;;20.95;3.40;;;;;;;17.89;100.00;99585.34;5054771;28;20040;-95
2022/10/01 07:37:39;;;;;;;11.88;2.40;;;;;;;18.68;100.00;99575.50;5054751;28;20108;-95
2022/10/01 07:40:05;;;;;;;20.02;3.70;;;;;;;19.02;100.00;99609.66;5053817;28;20104;-95
2022/10/01 07:42:30;;;;;;;18.27;3.17;;;;;;;18.82;95.89;99606.66;5054042;28;20051;-94
2022/10/01 07:44:56;;;;;;;17.40;2.97;;;;;;;18.54;97.80;99606.31;5053953;28;20418;-96
2022/10/01 07:47:21;;;;;;;17.17;2.72;;;;;;;18.99;97.12;99612.66;5054002;28;20029;-95
2022/10/01 07:49:47;;;;;;;23.77;3.60;;;;;;;19.25;92.94;99603.47;5053970;28;20071;-93
2022/10/01 07:52:12;;;;;;;17.38;3.25;;;;;;;19.86;94.36;99626.53;5053910;28;20032;-96
2022/10/01 07:54:38;;;;;;;21.60;3.95;;;;;;;19.64;92.62;99636.22;5054053;28;20029;-96
2022/10/01 07:57:03;;;;;;;22.85;3.72;;;;;;;19.22;93.11;99631.28;5053809;28;20025;-95
2022/10/01 07:59:30;;;;;;;18.17;3.33;;;;;;;19.77;93.77;99631.97;5053904;28;20505;-96
2022/10/01 08:01:56;;;;;;;22.23;4.22;;;;;;;19.88;89.61;99641.31;5054223;28;20032;-96
2022/10/01 08:07:07;;;;;;;23.25;3.70;;;;;;;22.67;78.52;99643.97;5057680;28;20074;-95
2022/10/01 08:09:33;;;;;;;18.00;3.58;;;;;;;23.31;74.40;99630.06;5060119;28;20474;-95
2022/10/01 08:11:59;;;;;;;15.77;3.83;;;;;;;23.74;75.47;99643.03;5054361;28;20589;-95
2022/10/01 08:14:25;;;;;;;24.60;4.60;;;;;;;21.60;78.45;99635.38;5054481;28;20317;-96
2022/10/01 08:16:54;;;;;;;19.10;4.72;;;;;;;22.47;77.89;99650.09;5058173;28;20484;-96
2022/10/01 08:19:20;;;;;;;17.42;3.40;;;;;;;23.13;71.63;99640.59;5057889;28;20025;-96
2022/10/01 08:21:45;;;;;;;20.85;3.45;;;;;;;26.57;60.67;99644.31;5055910;28;20023;-96
2022/10/01 08:24:11;;;;;;;12.85;3.00;;;;;;;26.67;57.00;99644.63;5056043;28;20056;-96
2022/10/01 08:26:37;;;;;;;16.67;3.65;;;;;;;27.80;52.33;99644.69;5054153;28;20063;-96
2022/10/01 08:29:03;;;;;;;15.68;3.13;;;;;;;29.17;50.94;99659.31;5054771;28;20024;-96
2022/10/01 08:31:29;;;;;;;16.30;4.05;;;;;;;28.66;49.80;99655.69;5054775;28;20021;-96
2022/10/01 08:33:55;;;;;;;19.85;3.88;;;;;;;28.87;48.85;99652.31;5063111;28;20033;-96
2022/10/01 08:36:21;;;;;;;17.23;3.17;;;;;;;26.91;50.74;99656.28;5064091;28;20498;-96
2022/10/01 08:38:47;;;;;;;14.77;3.42;;;;;;;25.84;55.48;99667.50;5065463;28;20021;-96
2022/10/01 08:41:38;;;;;;;15.77;3.53;;;;;;;25.06;55.71;99682.16;5066331;28;20047;-96
2022/10/01 08:44:06;;;;;;;18.70;3.35;;;;;;;24.54;58.68;99669.63;5067009;28;20036;-96
2022/10/01 08:46:36;;;;;;;16.83;3.58;;;;;;;25.59;57.51;99679.09;5068137;28;20029;-96
2022/10/01 08:49:45;;;;;;;14.25;3.88;;;;;;;26.18;54.32;99690.31;5048324;28;20029;-96
2022/10/01 08:52:41;;;;;;;18.67;4.10;;;;;;;26.28;52.54;99696.03;5054135;28;20047;-96
2022/10/01 08:55:35;;;;;;;19.90;3.35;;;;;;;24.52;57.48;99703.91;5067456;28;20037;-96
2022/10/01 08:58:06;;;;;;;11.50;2.95;;;;;;;23.76;59.79;99715.19;5064294;28;20032;-95
2022/10/01 09:00:35;;;;;;;13.65;3.17;;;;;;;23.03;65.71;99715.13;5065669;28;20036;-96
2022/10/01 09:03:05;;;;;;;17.60;3.17;;;;;;;22.30;67.63;99716.47;5062567;28;20025;-96
2022/10/01 09:05:38;;;;;;;14.18;3.05;;;;;;;22.02;68.88;99729.84;5064874;28;20024;-96
2022/10/01 09:08:17;;;;;;;17.33;2.75;;;;;;;21.55;72.46;99739.34;5065407;28;20055;-96
2022/10/01 09:10:46;;;;;;;15.02;3.47;;;;;;;22.77;70.43;99730.06;5071157;28;20035;-96
2022/10/01 09:13:27;;;;;;;19.73;3.67;;;;;;;22.41;71.63;99727.63;5069895;28;20067;-96
2022/10/01 09:16:28;;;;;;;17.85;3.67;;;;;;;21.81;73.24;99733.38;5160552;22;20105;-96
2022/10/01 09:21:47;;;;;;;18.67;3.22;;;;;;;21.61;76.75;99746.59;5322021;22;20056;-95
2022/10/01 09:24:15;;;;;;;15.52;3.80;;;;;;;21.88;77.76;99733.41;5078428;28;20029;-96
2022/10/01 09:26:45;;;;;;;20.55;3.78;;;;;;;22.15;77.76;99729.09;5078964;28;20021;-96
2022/10/01 09:29:44;;;;;;;20.13;3.22;;;;;;;22.51;79.83;99725.41;5083201;28;20490;-96
2022/10/01 09:32:16;;;;;;;19.13;3.00;;;;;;;22.21;78.47;99735.50;5060213;28;20032;-96
2022/10/01 09:34:43;;;;;;;18.88;2.90;;;;;;;21.99;78.83;99743.59;5065233;28;20025;-96
2022/10/01 09:37:40;;;;;;;21.23;3.35;;;;;;;22.85;79.88;99747.75;5071275;28;20040;-96
2022/10/01 09:40:18;;;;;;;17.25;3.35;;;;;;;22.41;78.06;99749.00;5064094;28;20025;-96
2022/10/01 09:42:46;;;;;;;25.52;4.28;;;;;;;21.85;77.92;99747.19;5128404;22;21090;-96
2022/10/01 09:45:18;;;;;;;19.35;4.32;;;;;;;22.51;77.58;99750.31;5048891;28;20025;-96
2022/10/01 09:47:46;;;;;;;;;;;;;;;22.38;78.24;99769.78;5049216;28;20499;-96
2022/10/01 09:50:21;;;;;;;20.92;4.13;;;;;;;23.61;76.99;99763.63;5029625;28;19920;-96
2022/10/01 09:52:50;;;;;;;21.77;4.22;;;;;;;23.22;74.78;99759.84;5026827;28;20021;-96
2022/10/01 09:55:15;;;;;;;18.90;3.90;;;;;;;23.39;76.75;99778.25;5019976;28;20491;-96
2022/10/01 09:57:46;;;;;;;21.15;3.45;;;;;;;23.36;73.57;99764.22;5036608;28;20026;-95
2022/10/01 10:00:21;;;;;;;19.70;3.50;;;;;;;23.53;74.10;99761.97;5018898;28;20053;-96
2022/10/01 10:02:55;;;;;;;27.08;5.05;;;;;;;23.36;72.33;99769.59;5022585;28;20030;-95
2022/10/01 10:05:29;;;;;;;24.95;4.43;;;;;;;23.14;72.20;99768.91;5026283;28;20219;-96
2022/10/01 10:07:59;;;;;;;21.50;3.95;;;;;;;23.52;72.58;99783.63;5020264;28;20499;-96
2022/10/01 10:10:34;;;;;;;24.27;4.70;;;;;;;24.10;72.33;99778.50;5040971;28;20089;-96
2022/10/01 10:13:09;;;;;;;17.60;4.18;;;;;;;24.67;70.44;99796.78;5023870;28;20120;-96
2022/10/01 10:15:40;;;;;;;21.40;3.90;;;;;;;24.59;67.22;99799.72;5039792;28;20060;-96
2022/10/01 10:18:16;;;;;;;24.55;3.67;;;;;;;24.50;64.02;99788.31;5025866;28;20026;-96
2022/10/01 10:20:44;;;;;;;22.33;4.72;;;;;;;25.64;62.68;99794.84;5025022;28;20022;-96
2022/10/01 10:23:25;;;;;;;23.98;4.18;;;;;;;26.02;63.90;99793.16;5022203;28;20022;-96
2022/10/01 10:26:02;;;;;;;17.87;3.50;;;;;;;25.92;59.06;99801.72;5040452;28;20057;-96
2022/10/01 10:28:39;;;;;;;19.20;2.90;;;;;;;24.99;60.25;99807.63;5017868;28;20026;-96
2022/10/01 10:31:12;;;;;;;24.27;3.45;;;;;;;24.98;55.42;99804.13;5019543;28;20033;-95
2022/10/01 10:33:45;;;;;;;15.13;3.63;;;;;;;24.94;57.73;99813.59;5021594;28;20021;-96
2022/10/01 10:36:14;;;;;;;12.27;2.70;;;;;;;24.97;56.11;99813.19;5023223;28;20026;-96
2022/10/01 10:38:44;;;;;;;17.42;3.67;;;;;;;24.57;54.62;99815.19;5034458;28;20088;-96
2022/10/01 10:41:18;;;;;;;16.35;3.15;;;;;;;24.90;55.41;99823.97;5024945;28;20026;-96
2022/10/01 10:43:47;;;;;;;18.23;3.45;;;;;;;24.12;56.89;99819.34;5022685;28;20088;-96
2022/10/01 10:46:29;;;;;;;18.08;3.30;;;;;;;24.49;57.70;99819.72;5024489;28;20013;-96
2022/10/01 10:49:19;;;;;;;20.77;3.63;;;;;;;23.28;59.57;99828.72;5024010;28;20026;-95
2022/10/01 10:51:50;;;;;;;13.50;3.08;;;;;;;24.46;58.12;99821.97;5044061;28;20040;-96
2022/10/01 10:54:31;;;;;;;15.65;3.00;;;;;;;24.44;57.06;99819.50;5026374;28;20030;-95
2022/10/01 10:57:03;;;;;;;13.88;3.25;;;;;;;25.17;56.21;99826.53;5021892;28;20116;-96
2022/10/01 10:59:40;;;;;;;17.75;3.85;;;;;;;23.21;58.63;99840.41;5021675;28;20026;-95
2022/10/01 11:02:15;;;;;;;12.02;2.47;;;;;;;24.42;56.94;99828.81;5035643;28;20033;-95
2022/10/01 11:04:43;;;;;;;13.32;2.85;;;;;;;26.15;53.45;99841.47;5018965;28;20025;-96
2022/10/01 11:07:12;;;;;;;14.68;3.70;;;;;;;25.87;54.84;99855.28;5041310;28;20030;-96
2022/10/01 11:09:56;;;;;;;9.27;2.67;;;;;;;26.93;49.04;99866.19;5020827;28;20022;-95
2022/10/01 11:12:35;;;;;;;10.45;2.40;;;;;;;28.15;46.19;99854.38;5016828;28;20468;-96
2022/10/01 11:15:15;;;;;;;11.73;2.63;;;;;;;27.32;49.54;99861.38;5016007;28;20044;-94
2022/10/01 11:17:59;;;;;;;10.27;3.00;;;;;;;28.78;46.11;99850.97;5032651;28;20033;-96
2022/10/01 11:20:37;;;;;;;13.23;3.17;;;;;;;27.31;47.72;99849.75;5015199;28;20219;-95
2022/10/01 11:23:26;;;;;;;7.88;2.47;;;;;;;27.70;47.34;99858.34;5015575;28;20045;-96
2022/10/01 11:26:08;;;;;;;11.80;2.97;;;;;;;25.93;51.27;99859.84;5031272;28;20061;-96
2022/10/01 11:28:46;;;;;;;14.45;3.08;;;;;;;27.42;47.38;99859.78;5031324;28;20026;-96
2022/10/01 11:31:30;;;;;;;15.40;2.92;;;;;;;25.30;51.69;99872.19;5014896;28;20534;-96
2022/10/01 11:34:19;;;;;;;14.07;3.30;;;;;;;24.66;54.74;99870.28;5015007;28;20498;-96
2022/10/01 11:37:03;;;;;;;27.90;3.25;;;;;;;24.46;53.70;99881.03;5031263;28;20029;-95
2022/10/01 11:39:32;;;;;;;15.65;2.85;;;;;;;25.07;51.99;99877.19;5014949;28;20372;-94
2022/10/01 11:42:09;;;;;;;10.63;2.60;;;;;;;25.22;52.96;99885.84;5014769;28;20353;-95